sensor_id;sensor_type;location;lat;lon;timestamp;pressure;altitude;pressure_sealevel;temperature;humidity
62126;BME280;69591;53.282;6.150;2023-11-19T00:00:02;100603.53;;;15.29;61.28
62126;BME280;69591;53.282;6.150;2023-11-19T00:01:08;100601.97;;;15.28;61.37
62126;BME280;69591;53.282;6.150;2023-11-19T00:02:09;100593.81;;;15.28;61.24
62126;BME280;69591;53.282;6.150;2023-11-19T00:03:11;100599.66;;;15.30;61.41
62126;BME280;69591;53.282;6.150;2023-11-19T00:04:13;100585.28;;;15.30;61.35
62126;BME280;69591;53.282;6.150;2023-11-19T00:05:15;100589.56;;;15.31;61.10
62126;BME280;69591;53.282;6.150;2023-11-19T00:06:17;100582.19;;;15.31;61.36
62126;BME280;69591;53.282;6.150;2023-11-19T00:07:18;100580.59;;;15.30;61.15
62126;BME280;69591;53.282;6.150;2023-11-19T00:08:22;100586.84;;;15.31;61.48
62126;BME280;69591;53.282;6.150;2023-11-19T00:09:23;100584.91;;;15.31;61.57
62126;BME280;69591;53.282;6.150;2023-11-19T00:10:25;100579.47;;;15.31;61.45
62126;BME280;69591;53.282;6.150;2023-11-19T00:11:28;100579.84;;;15.30;61.30
62126;BME280;69591;53.282;6.150;2023-11-19T00:12:30;100580.25;;;15.32;61.14
62126;BME280;69591;53.282;6.150;2023-11-19T00:13:31;100575.53;;;15.29;61.04
62126;BME280;69591;53.282;6.150;2023-11-19T00:14:33;100580.25;;;15.32;61.33
62126;BME280;69591;53.282;6.150;2023-11-19T00:15:35;100572.84;;;15.32;61.24
62126;BME280;69591;53.282;6.150;2023-11-19T00:16:36;100570.13;;;15.32;61.50
62126;BME280;69591;53.282;6.150;2023-11-19T00:17:38;100559.25;;;15.32;61.30
62126;BME280;69591;53.282;6.150;2023-11-19T00:18:39;100567.03;;;15.34;61.19
62126;BME280;69591;53.282;6.150;2023-11-19T00:19:41;100562.75;;;15.33;61.46
62126;BME280;69591;53.282;6.150;2023-11-19T00:20:43;100561.97;;;15.32;61.51
62126;BME280;69591;53.282;6.150;2023-11-19T00:21:44;100563.56;;;15.33;61.51
62126;BME280;69591;53.282;6.150;2023-11-19T00:22:46;100567.03;;;15.34;61.40
62126;BME280;69591;53.282;6.150;2023-11-19T00:23:50;100569.75;;;15.34;61.65
62126;BME280;69591;53.282;6.150;2023-11-19T00:24:52;100578.69;;;15.34;61.48
62126;BME280;69591;53.282;6.150;2023-11-19T00:25:54;100582.97;;;15.35;61.72
62126;BME280;69591;53.282;6.150;2023-11-19T00:26:57;100557.34;;;15.36;61.63
62126;BME280;69591;53.282;6.150;2023-11-19T00:27:58;100569.75;;;15.34;61.60
62126;BME280;69591;53.282;6.150;2023-11-19T00:29:00;100569.38;;;15.35;61.47
62126;BME280;69591;53.282;6.150;2023-11-19T00:30:02;100563.19;;;15.35;61.28
62126;BME280;69591;53.282;6.150;2023-11-19T00:31:04;100562.78;;;15.36;61.66
62126;BME280;69591;53.282;6.150;2023-11-19T00:32:06;100558.50;;;15.35;61.36
62126;BME280;69591;53.282;6.150;2023-11-19T00:33:07;100558.50;;;15.35;61.56
62126;BME280;69591;53.282;6.150;2023-11-19T00:34:09;100570.16;;;15.36;61.40
62126;BME280;69591;53.282;6.150;2023-11-19T00:35:11;100565.50;;;15.36;61.43
62126;BME280;69591;53.282;6.150;2023-11-19T00:36:12;100565.50;;;15.36;61.14
62126;BME280;69591;53.282;6.150;2023-11-19T00:37:14;100560.06;;;15.36;61.21
62126;BME280;69591;53.282;6.150;2023-11-19T00:38:16;100565.50;;;15.36;61.36
62126;BME280;69591;53.282;6.150;2023-11-19T00:39:18;100554.63;;;15.36;61.38
62126;BME280;69591;53.282;6.150;2023-11-19T00:40:20;100551.53;;;15.38;61.16
62126;BME280;69591;53.282;6.150;2023-11-19T00:41:21;100556.19;;;15.37;61.62
62126;BME280;69591;53.282;6.150;2023-11-19T00:42:24;100551.53;;;15.38;61.31
62126;BME280;69591;53.282;6.150;2023-11-19T00:43:26;100551.53;;;15.38;61.47
62126;BME280;69591;53.282;6.150;2023-11-19T00:44:28;100543.38;;;15.38;61.31
62126;BME280;69591;53.282;6.150;2023-11-19T00:45:30;100545.31;;;15.37;61.32
62126;BME280;69591;53.282;6.150;2023-11-19T00:46:31;100537.53;;;15.36;61.49
62126;BME280;69591;53.282;6.150;2023-11-19T00:47:33;100536.00;;;15.38;61.48
62126;BME280;69591;53.282;6.150;2023-11-19T00:48:35;100537.13;;;15.37;61.42
62126;BME280;69591;53.282;6.150;2023-11-19T00:49:36;100538.72;;;15.38;61.25
62126;BME280;69591;53.282;6.150;2023-11-19T00:50:38;100543.03;;;15.39;61.22
62126;BME280;69591;53.282;6.150;2023-11-19T00:51:42;100540.66;;;15.38;61.45
62126;BME280;69591;53.282;6.150;2023-11-19T00:52:44;100542.22;;;15.39;61.33
62126;BME280;69591;53.282;6.150;2023-11-19T00:53:45;100544.16;;;15.38;61.34
62126;BME280;69591;53.282;6.150;2023-11-19T00:54:47;100537.56;;;15.39;61.10
62126;BME280;69591;53.282;6.150;2023-11-19T00:55:48;100550.00;;;15.40;61.23
62126;BME280;69591;53.282;6.150;2023-11-19T00:56:50;100539.13;;;15.40;61.13
62126;BME280;69591;53.282;6.150;2023-11-19T00:57:53;100545.34;;;15.41;61.25
62126;BME280;69591;53.282;6.150;2023-11-19T00:58:55;100544.56;;;15.40;61.38
62126;BME280;69591;53.282;6.150;2023-11-19T00:59:57;100545.75;;;15.39;61.62
62126;BME280;69591;53.282;6.150;2023-11-19T01:00:59;100535.28;;;15.41;61.11
62126;BME280;69591;53.282;6.150;2023-11-19T01:02:00;100531.75;;;15.41;61.31
62126;BME280;69591;53.282;6.150;2023-11-19T01:03:02;100530.97;;;15.40;61.43
62126;BME280;69591;53.282;6.150;2023-11-19T01:04:04;100524.38;;;15.41;61.46
62126;BME280;69591;53.282;6.150;2023-11-19T01:05:08;100525.16;;;15.42;61.68
62126;BME280;69591;53.282;6.150;2023-11-19T01:06:10;100514.66;;;15.40;61.56
62126;BME280;69591;53.282;6.150;2023-11-19T01:07:12;100527.09;;;15.41;61.43
62126;BME280;69591;53.282;6.150;2023-11-19T01:08:13;100523.97;;;15.39;61.58
62126;BME280;69591;53.282;6.150;2023-11-19T01:09:15;100527.09;;;15.41;61.42
62126;BME280;69591;53.282;6.150;2023-11-19T01:10:17;100522.41;;;15.42;61.39
62126;BME280;69591;53.282;6.150;2023-11-19T01:11:22;100524.38;;;15.41;61.79
62126;BME280;69591;53.282;6.150;2023-11-19T01:12:23;100537.59;;;15.43;61.91
62126;BME280;69591;53.282;6.150;2023-11-19T01:13:26;100532.16;;;15.43;61.71
62126;BME280;69591;53.282;6.150;2023-11-19T01:14:29;100536.81;;;15.42;61.74
62126;BME280;69591;53.282;6.150;2023-11-19T01:15:31;100543.03;;;15.43;61.81
62126;BME280;69591;53.282;6.150;2023-11-19T01:16:33;100546.53;;;15.43;61.66
62126;BME280;69591;53.282;6.150;2023-11-19T01:17:36;100552.75;;;15.44;61.61
62126;BME280;69591;53.282;6.150;2023-11-19T01:18:38;100550.81;;;15.44;61.52
62126;BME280;69591;53.282;6.150;2023-11-19T01:19:40;100547.31;;;15.44;61.60
62126;BME280;69591;53.282;6.150;2023-11-19T01:20:42;100544.59;;;15.44;61.50
62126;BME280;69591;53.282;6.150;2023-11-19T01:21:43;100544.59;;;15.44;61.57
62126;BME280;69591;53.282;6.150;2023-11-19T01:22:45;100537.22;;;15.44;61.78
62126;BME280;69591;53.282;6.150;2023-11-19T01:23:47;100546.16;;;15.45;61.69
62126;BME280;69591;53.282;6.150;2023-11-19T01:24:49;100534.50;;;15.44;61.68
62126;BME280;69591;53.282;6.150;2023-11-19T01:25:50;100532.53;;;15.45;61.70
62126;BME280;69591;53.282;6.150;2023-11-19T01:26:52;100528.28;;;15.44;61.63
62126;BME280;69591;53.282;6.150;2023-11-19T01:27:53;100529.81;;;15.45;61.54
62126;BME280;69591;53.282;6.150;2023-11-19T01:28:58;100527.09;;;15.45;61.50
62126;BME280;69591;53.282;6.150;2023-11-19T01:30:00;100532.53;;;15.45;61.55
62126;BME280;69591;53.282;6.150;2023-11-19T01:31:01;100529.06;;;15.44;61.49
62126;BME280;69591;53.282;6.150;2023-11-19T01:32:04;100529.81;;;15.45;61.46
62126;BME280;69591;53.282;6.150;2023-11-19T01:33:05;100516.97;;;15.38;61.54
62126;BME280;69591;53.282;6.150;2023-11-19T01:34:07;100530.63;;;15.45;61.44
62126;BME280;69591;53.282;6.150;2023-11-19T01:35:09;100529.81;;;15.45;61.46
62126;BME280;69591;53.282;6.150;2023-11-19T01:36:13;100528.69;;;15.46;61.56
62126;BME280;69591;53.282;6.150;2023-11-19T01:37:14;100524.38;;;15.45;61.57
62126;BME280;69591;53.282;6.150;2023-11-19T01:38:16;100527.91;;;15.45;61.44
62126;BME280;69591;53.282;6.150;2023-11-19T01:39:18;100526.72;;;15.46;61.46
62126;BME280;69591;53.282;6.150;2023-11-19T01:40:21;100525.16;;;15.45;61.51
62126;BME280;69591;53.282;6.150;2023-11-19T01:41:23;100514.28;;;15.45;61.26
62126;BME280;69591;53.282;6.150;2023-11-19T01:42:24;100508.84;;;15.45;61.34
62126;BME280;69591;53.282;6.150;2023-11-19T01:43:33;100499.13;;;15.44;61.18
62126;BME280;69591;53.282;6.150;2023-11-19T01:44:37;100503.41;;;15.45;61.27
62126;BME280;69591;53.282;6.150;2023-11-19T01:45:39;100498.75;;;15.46;61.42
62126;BME280;69591;53.282;6.150;2023-11-19T01:46:42;100503.41;;;15.45;61.56
62126;BME280;69591;53.282;6.150;2023-11-19T01:47:45;100497.19;;;15.45;61.48
62126;BME280;69591;53.282;6.150;2023-11-19T01:48:47;100509.63;;;15.46;61.33
62126;BME280;69591;53.282;6.150;2023-11-19T01:49:48;100499.50;;;15.46;61.13
62126;BME280;69591;53.282;6.150;2023-11-19T01:50:50;100506.53;;;15.47;61.34
62126;BME280;69591;53.282;6.150;2023-11-19T01:52:04;100506.13;;;15.45;61.32
62126;BME280;69591;53.282;6.150;2023-11-19T01:53:06;100499.50;;;15.46;61.46
62126;BME280;69591;53.282;6.150;2023-11-19T01:54:09;100498.75;;;15.46;61.47
62126;BME280;69591;53.282;6.150;2023-11-19T01:55:11;100496.78;;;15.46;61.55
62126;BME280;69591;53.282;6.150;2023-11-19T01:56:14;100500.31;;;15.47;61.40
62126;BME280;69591;53.282;6.150;2023-11-19T01:57:17;100488.63;;;15.46;61.34
62126;BME280;69591;53.282;6.150;2023-11-19T01:58:18;100489.41;;;15.47;61.61
62126;BME280;69591;53.282;6.150;2023-11-19T01:59:20;100494.88;;;15.47;61.46
62126;BME280;69591;53.282;6.150;2023-11-19T02:00:24;100485.53;;;15.48;61.56
62126;BME280;69591;53.282;6.150;2023-11-19T02:01:26;100501.09;;;15.47;61.33
62126;BME280;69591;53.282;6.150;2023-11-19T02:02:28;100496.41;;;15.48;61.50
62126;BME280;69591;53.282;6.150;2023-11-19T02:03:31;100493.31;;;15.46;61.34
62126;BME280;69591;53.282;6.150;2023-11-19T02:04:33;100495.66;;;15.47;61.57
62126;BME280;69591;53.282;6.150;2023-11-19T02:05:35;100497.59;;;15.47;61.69
62126;BME280;69591;53.282;6.150;2023-11-19T02:06:40;100498.00;;;15.49;61.54
62126;BME280;69591;53.282;6.150;2023-11-19T02:07:43;100498.38;;;15.47;61.55
62126;BME280;69591;53.282;6.150;2023-11-19T02:08:45;100506.53;;;15.47;61.45
62126;BME280;69591;53.282;6.150;2023-11-19T02:09:47;100494.88;;;15.47;61.52
62126;BME280;69591;53.282;6.150;2023-11-19T02:10:48;100513.53;;;15.48;61.33
62126;BME280;69591;53.282;6.150;2023-11-19T02:11:50;100510.00;;;15.48;61.46
62126;BME280;69591;53.282;6.150;2023-11-19T02:12:52;100504.19;;;15.46;61.39
62126;BME280;69591;53.282;6.150;2023-11-19T02:13:54;100507.69;;;15.46;61.54
62126;BME280;69591;53.282;6.150;2023-11-19T02:14:56;100508.09;;;15.48;61.34
62126;BME280;69591;53.282;6.150;2023-11-19T02:15:59;100508.09;;;15.48;61.44
62126;BME280;69591;53.282;6.150;2023-11-19T02:17:01;100513.53;;;15.48;61.42
62126;BME280;69591;53.282;6.150;2023-11-19T02:18:19;100501.03;;;15.40;61.48
62126;BME280;69591;53.282;6.150;2023-11-19T02:19:21;100513.88;;;15.43;61.30
62126;BME280;69591;53.282;6.150;2023-11-19T02:20:23;100513.13;;;15.46;61.50
62126;BME280;69591;53.282;6.150;2023-11-19T02:21:24;100515.06;;;15.46;61.28
62126;BME280;69591;53.282;6.150;2023-11-19T02:22:26;100517.41;;;15.47;61.15
62126;BME280;69591;53.282;6.150;2023-11-19T02:23:28;100519.34;;;15.47;61.41
62126;BME280;69591;53.282;6.150;2023-11-19T02:24:32;100518.56;;;15.46;61.26
62126;BME280;69591;53.282;6.150;2023-11-19T02:25:34;100515.84;;;15.46;61.51
62126;BME280;69591;53.282;6.150;2023-11-19T02:26:39;100517.41;;;15.47;61.55
62126;BME280;69591;53.282;6.150;2023-11-19T02:27:51;100517.00;;;15.45;61.72
62126;BME280;69591;53.282;6.150;2023-11-19T02:28:54;100512.75;;;15.44;61.56
62126;BME280;69591;53.282;6.150;2023-11-19T02:29:56;100517.00;;;15.45;61.59
62126;BME280;69591;53.282;6.150;2023-11-19T02:30:58;100517.81;;;15.46;61.52
62126;BME280;69591;53.282;6.150;2023-11-19T02:32:00;100510.41;;;15.46;61.64
62126;BME280;69591;53.282;6.150;2023-11-19T02:33:02;100518.56;;;15.46;61.41
62126;BME280;69591;53.282;6.150;2023-11-19T02:34:04;100524.00;;;15.46;61.48
62126;BME280;69591;53.282;6.150;2023-11-19T02:35:06;100512.75;;;15.44;61.35
62126;BME280;69591;53.282;6.150;2023-11-19T02:36:09;100510.41;;;15.46;61.30
62126;BME280;69591;53.282;6.150;2023-11-19T02:37:11;100513.13;;;15.46;61.29
62126;BME280;69591;53.282;6.150;2023-11-19T02:38:13;100515.06;;;15.46;61.36
62126;BME280;69591;53.282;6.150;2023-11-19T02:39:15;100508.84;;;15.45;61.43
62126;BME280;69591;53.282;6.150;2023-11-19T02:40:16;100514.28;;;15.45;61.35
62126;BME280;69591;53.282;6.150;2023-11-19T02:41:18;100501.47;;;15.46;61.32
62126;BME280;69591;53.282;6.150;2023-11-19T02:42:20;100501.47;;;15.46;61.43
62126;BME280;69591;53.282;6.150;2023-11-19T02:43:23;100508.47;;;15.47;61.48
62126;BME280;69591;53.282;6.150;2023-11-19T02:44:24;100504.94;;;15.46;61.42
62126;BME280;69591;53.282;6.150;2023-11-19T02:45:26;100501.47;;;15.46;61.47
62126;BME280;69591;53.282;6.150;2023-11-19T02:46:29;100504.94;;;15.46;61.59
62126;BME280;69591;53.282;6.150;2023-11-19T02:47:31;100504.19;;;15.46;61.53
62126;BME280;69591;53.282;6.150;2023-11-19T02:48:32;100504.94;;;15.46;61.46
62126;BME280;69591;53.282;6.150;2023-11-19T02:49:34;100500.31;;;15.47;61.64
62126;BME280;69591;53.282;6.150;2023-11-19T02:50:36;100497.97;;;15.45;61.67
62126;BME280;69591;53.282;6.150;2023-11-19T02:51:37;100500.31;;;15.47;61.71
62126;BME280;69591;53.282;6.150;2023-11-19T02:52:40;100500.31;;;15.47;61.57
62126;BME280;69591;53.282;6.150;2023-11-19T02:53:42;100503.03;;;15.47;61.55
62126;BME280;69591;53.282;6.150;2023-11-19T02:54:43;100497.19;;;15.48;61.61
62126;BME280;69591;53.282;6.150;2023-11-19T02:55:45;100495.66;;;15.47;61.69
62126;BME280;69591;53.282;6.150;2023-11-19T02:56:47;100495.66;;;15.47;61.65
62126;BME280;69591;53.282;6.150;2023-11-19T02:57:49;100493.69;;;15.48;61.58
62126;BME280;69591;53.282;6.150;2023-11-19T02:58:52;100489.81;;;15.49;61.63
62126;BME280;69591;53.282;6.150;2023-11-19T02:59:54;100498.38;;;15.47;61.62
62126;BME280;69591;53.282;6.150;2023-11-19T03:00:56;100488.63;;;15.46;61.72
62126;BME280;69591;53.282;6.150;2023-11-19T03:01:58;100490.22;;;15.47;61.55
62126;BME280;69591;53.282;6.150;2023-11-19T03:02:59;100490.22;;;15.47;61.44
62126;BME280;69591;53.282;6.150;2023-11-19T03:04:02;100476.59;;;15.44;61.36
62126;BME280;69591;53.282;6.150;2023-11-19T03:05:05;100486.69;;;15.47;61.65
62126;BME280;69591;53.282;6.150;2023-11-19T03:06:07;100482.44;;;15.46;61.15
62126;BME280;69591;53.282;6.150;2023-11-19T03:07:09;100481.25;;;15.47;61.44
62126;BME280;69591;53.282;6.150;2023-11-19T03:08:11;100477.75;;;15.46;61.30
62126;BME280;69591;53.282;6.150;2023-11-19T03:09:24;100481.22;;;15.43;61.57
62126;BME280;69591;53.282;6.150;2023-11-19T03:10:29;100478.91;;;15.45;61.51
62126;BME280;69591;53.282;6.150;2023-11-19T03:11:30;100475.03;;;15.46;61.58
62126;BME280;69591;53.282;6.150;2023-11-19T03:12:32;100482.44;;;15.46;61.32
62126;BME280;69591;53.282;6.150;2023-11-19T03:13:34;100483.19;;;15.46;61.34
62126;BME280;69591;53.282;6.150;2023-11-19T03:14:37;100476.59;;;15.47;61.38
62126;BME280;69591;53.282;6.150;2023-11-19T03:15:39;100483.19;;;15.46;61.55
62126;BME280;69591;53.282;6.150;2023-11-19T03:16:44;100473.88;;;15.47;61.30
62126;BME280;69591;53.282;6.150;2023-11-19T03:17:46;100471.56;;;15.46;61.53
62126;BME280;69591;53.282;6.150;2023-11-19T03:18:48;100477.75;;;15.46;61.42
62126;BME280;69591;53.282;6.150;2023-11-19T03:19:50;100471.16;;;15.47;61.51
62126;BME280;69591;53.282;6.150;2023-11-19T03:20:52;100470.00;;;15.48;61.81
62126;BME280;69591;53.282;6.150;2023-11-19T03:21:54;100464.53;;;15.45;61.87
62126;BME280;69591;53.282;6.150;2023-11-19T03:22:56;100465.72;;;15.47;61.83
62126;BME280;69591;53.282;6.150;2023-11-19T03:23:58;100457.56;;;15.47;61.69
62126;BME280;69591;53.282;6.150;2023-11-19T03:25:00;100470.00;;;15.48;61.93
62126;BME280;69591;53.282;6.150;2023-11-19T03:26:01;100463.00;;;15.47;61.69
62126;BME280;69591;53.282;6.150;2023-11-19T03:27:04;100470.78;;;15.49;61.79
62126;BME280;69591;53.282;6.150;2023-11-19T03:28:05;100470.00;;;15.48;61.61
62126;BME280;69591;53.282;6.150;2023-11-19T03:29:07;100461.03;;;15.48;61.66
62126;BME280;69591;53.282;6.150;2023-11-19T03:30:11;100456.38;;;15.48;61.46
62126;BME280;69591;53.282;6.150;2023-11-19T03:31:12;100463.75;;;15.48;61.61
62126;BME280;69591;53.282;6.150;2023-11-19T03:32:14;100461.44;;;15.46;61.44
62126;BME280;69591;53.282;6.150;2023-11-19T03:33:16;100461.03;;;15.48;61.72
62126;BME280;69591;53.282;6.150;2023-11-19T03:34:18;100467.28;;;15.48;61.60
62126;BME280;69591;53.282;6.150;2023-11-19T03:35:19;100456.78;;;15.47;61.90
62126;BME280;69591;53.282;6.150;2023-11-19T03:36:21;100460.28;;;15.47;61.65
62126;BME280;69591;53.282;6.150;2023-11-19T03:37:24;100457.56;;;15.47;61.55
62126;BME280;69591;53.282;6.150;2023-11-19T03:38:25;100448.22;;;15.48;61.66
62126;BME280;69591;53.282;6.150;2023-11-19T03:39:28;100452.13;;;15.47;61.56
62126;BME280;69591;53.282;6.150;2023-11-19T03:40:29;100445.50;;;15.48;61.79
62126;BME280;69591;53.282;6.150;2023-11-19T03:41:31;100452.13;;;15.47;61.88
62126;BME280;69591;53.282;6.150;2023-11-19T03:42:36;100450.53;;;15.46;61.83
62126;BME280;69591;53.282;6.150;2023-11-19T03:43:38;100452.88;;;15.48;61.53
62126;BME280;69591;53.282;6.150;2023-11-19T03:44:39;100452.50;;;15.49;61.60
62126;BME280;69591;53.282;6.150;2023-11-19T03:45:42;100444.34;;;15.49;61.72
62126;BME280;69591;53.282;6.150;2023-11-19T03:46:44;100445.09;;;15.46;61.93
62126;BME280;69591;53.282;6.150;2023-11-19T03:47:46;100452.13;;;15.47;61.82
62126;BME280;69591;53.282;6.150;2023-11-19T03:48:48;100449.00;;;15.49;61.58
62126;BME280;69591;53.282;6.150;2023-11-19T03:49:50;100451.34;;;15.50;61.74
62126;BME280;69591;53.282;6.150;2023-11-19T03:50:52;100448.22;;;15.48;61.88
62126;BME280;69591;53.282;6.150;2023-11-19T03:51:54;100440.84;;;15.49;61.76
62126;BME280;69591;53.282;6.150;2023-11-19T03:52:57;100447.06;;;15.49;61.93
62126;BME280;69591;53.282;6.150;2023-11-19T03:53:59;100439.69;;;15.50;61.82
62126;BME280;69591;53.282;6.150;2023-11-19T03:55:00;100440.06;;;15.48;61.76
62126;BME280;69591;53.282;6.150;2023-11-19T03:56:02;100446.66;;;15.51;61.61
62126;BME280;69591;53.282;6.150;2023-11-19T03:57:05;100454.06;;;15.50;61.74
62126;BME280;69591;53.282;6.150;2023-11-19T03:58:07;100448.63;;;15.50;62.00
62126;BME280;69591;53.282;6.150;2023-11-19T03:59:09;100454.84;;;15.51;61.68
62126;BME280;69591;53.282;6.150;2023-11-19T04:00:11;100445.91;;;15.50;61.75
62126;BME280;69591;53.282;6.150;2023-11-19T04:01:20;100439.69;;;15.50;61.37
62126;BME280;69591;53.282;6.150;2023-11-19T04:02:22;100445.13;;;15.50;61.81
62126;BME280;69591;53.282;6.150;2023-11-19T04:03:23;100440.47;;;15.50;61.77
62126;BME280;69591;53.282;6.150;2023-11-19T04:04:25;100452.91;;;15.51;61.65
62126;BME280;69591;53.282;6.150;2023-11-19T04:05:27;100444.75;;;15.51;61.82
62126;BME280;69591;53.282;6.150;2023-11-19T04:06:28;100450.97;;;15.52;61.51
62126;BME280;69591;53.282;6.150;2023-11-19T04:07:30;100450.19;;;15.51;61.45
62126;BME280;69591;53.282;6.150;2023-11-19T04:08:32;100446.66;;;15.51;61.49
62126;BME280;69591;53.282;6.150;2023-11-19T04:09:33;100446.66;;;15.51;61.52
62126;BME280;69591;53.282;6.150;2023-11-19T04:10:35;100446.66;;;15.51;61.74
62126;BME280;69591;53.282;6.150;2023-11-19T04:11:37;100450.19;;;15.51;61.47
62126;BME280;69591;53.282;6.150;2023-11-19T04:12:38;100449.03;;;15.52;61.55
62126;BME280;69591;53.282;6.150;2023-11-19T04:13:40;100441.22;;;15.51;61.51
62126;BME280;69591;53.282;6.150;2023-11-19T04:14:42;100450.19;;;15.51;61.57
62126;BME280;69591;53.282;6.150;2023-11-19T04:15:43;100447.47;;;15.51;61.56
62126;BME280;69591;53.282;6.150;2023-11-19T04:16:46;100442.81;;;15.52;61.30
62126;BME280;69591;53.282;6.150;2023-11-19T04:17:48;100447.47;;;15.51;61.66
62126;BME280;69591;53.282;6.150;2023-11-19T04:18:50;100464.56;;;15.52;61.45
62126;BME280;69591;53.282;6.150;2023-11-19T04:19:52;100452.91;;;15.51;61.59
62126;BME280;69591;53.282;6.150;2023-11-19T04:20:53;100452.91;;;15.51;61.37
62126;BME280;69591;53.282;6.150;2023-11-19T04:21:55;100457.19;;;15.52;61.46
62126;BME280;69591;53.282;6.150;2023-11-19T04:22:57;100458.34;;;15.51;61.46
62126;BME280;69591;53.282;6.150;2023-11-19T04:23:59;100460.69;;;15.53;61.47
62126;BME280;69591;53.282;6.150;2023-11-19T04:25:00;100461.06;;;15.51;61.77
62126;BME280;69591;53.282;6.150;2023-11-19T04:26:02;100458.34;;;15.51;61.60
62126;BME280;69591;53.282;6.150;2023-11-19T04:27:07;100452.91;;;15.51;61.65
62126;BME280;69591;53.282;6.150;2023-11-19T04:28:09;100461.06;;;15.51;61.61
62126;BME280;69591;53.282;6.150;2023-11-19T04:29:11;100460.69;;;15.53;61.56
62126;BME280;69591;53.282;6.150;2023-11-19T04:30:13;100463.78;;;15.51;61.59
62126;BME280;69591;53.282;6.150;2023-11-19T04:31:15;100459.91;;;15.52;61.48
62126;BME280;69591;53.282;6.150;2023-11-19T04:32:18;100454.47;;;15.52;61.43
62126;BME280;69591;53.282;6.150;2023-11-19T04:33:20;100459.50;;;15.50;61.69
62126;BME280;69591;53.282;6.150;2023-11-19T04:34:22;100452.91;;;15.51;61.76
62126;BME280;69591;53.282;6.150;2023-11-19T04:35:23;100444.34;;;15.53;61.54
62126;BME280;69591;53.282;6.150;2023-11-19T04:36:25;100462.63;;;15.52;61.88
62126;BME280;69591;53.282;6.150;2023-11-19T04:37:27;100449.38;;;15.51;61.82
62126;BME280;69591;53.282;6.150;2023-11-19T04:38:28;100453.31;;;15.53;61.59
62126;BME280;69591;53.282;6.150;2023-11-19T04:39:30;100454.47;;;15.52;61.45
62126;BME280;69591;53.282;6.150;2023-11-19T04:40:32;100451.34;;;15.50;61.52
62126;BME280;69591;53.282;6.150;2023-11-19T04:41:34;100459.91;;;15.52;61.67
62126;BME280;69591;53.282;6.150;2023-11-19T04:42:35;100456.81;;;15.54;61.71
62126;BME280;69591;53.282;6.150;2023-11-19T04:43:37;100461.47;;;15.53;61.87
62126;BME280;69591;53.282;6.150;2023-11-19T04:44:39;100450.59;;;15.53;61.64
62126;BME280;69591;53.282;6.150;2023-11-19T04:45:41;100455.25;;;15.53;61.76
62126;BME280;69591;53.282;6.150;2023-11-19T04:46:42;100465.38;;;15.52;61.67
62126;BME280;69591;53.282;6.150;2023-11-19T04:47:45;100462.25;;;15.54;61.61
62126;BME280;69591;53.282;6.150;2023-11-19T04:48:47;100463.78;;;15.51;61.52
62126;BME280;69591;53.282;6.150;2023-11-19T04:49:49;100456.41;;;15.52;61.34
62126;BME280;69591;53.282;6.150;2023-11-19T04:50:50;100462.63;;;15.52;61.28
62126;BME280;69591;53.282;6.150;2023-11-19T04:51:52;100463.78;;;15.51;61.45
62126;BME280;69591;53.282;6.150;2023-11-19T04:52:53;100464.56;;;15.52;61.39
62126;BME280;69591;53.282;6.150;2023-11-19T04:53:56;100458.34;;;15.51;61.44
62126;BME280;69591;53.282;6.150;2023-11-19T04:54:58;100463.78;;;15.51;61.46
62126;BME280;69591;53.282;6.150;2023-11-19T04:56:00;100463.78;;;15.51;61.55
62126;BME280;69591;53.282;6.150;2023-11-19T04:57:01;100459.91;;;15.52;61.72
62126;BME280;69591;53.282;6.150;2023-11-19T04:58:03;100458.34;;;15.51;61.76
62126;BME280;69591;53.282;6.150;2023-11-19T04:59:05;100456.41;;;15.52;61.55
62126;BME280;69591;53.282;6.150;2023-11-19T05:00:11;100453.69;;;15.52;61.29
62126;BME280;69591;53.282;6.150;2023-11-19T05:01:15;100461.06;;;15.51;61.63
62126;BME280;69591;53.282;6.150;2023-11-19T05:02:17;100462.25;;;15.50;61.49
62126;BME280;69591;53.282;6.150;2023-11-19T05:03:20;100459.91;;;15.52;61.61
62126;BME280;69591;53.282;6.150;2023-11-19T05:04:22;100457.19;;;15.52;61.72
62126;BME280;69591;53.282;6.150;2023-11-19T05:05:24;100459.91;;;15.52;61.55
62126;BME280;69591;53.282;6.150;2023-11-19T05:06:26;100459.91;;;15.52;61.57
62126;BME280;69591;53.282;6.150;2023-11-19T05:07:28;100459.91;;;15.52;61.69
62126;BME280;69591;53.282;6.150;2023-11-19T05:08:29;100459.91;;;15.52;61.49
62126;BME280;69591;53.282;6.150;2023-11-19T05:09:31;100453.69;;;15.52;61.55
62126;BME280;69591;53.282;6.150;2023-11-19T05:10:33;100470.81;;;15.52;61.64
62126;BME280;69591;53.282;6.150;2023-11-19T05:11:35;100464.56;;;15.52;61.69
62126;BME280;69591;53.282;6.150;2023-11-19T05:12:36;100455.63;;;15.51;61.65
62126;BME280;69591;53.282;6.150;2023-11-19T05:13:38;100461.06;;;15.51;61.59
62126;BME280;69591;53.282;6.150;2023-11-19T05:14:40;100463.78;;;15.51;61.54
62126;BME280;69591;53.282;6.150;2023-11-19T05:15:41;100454.47;;;15.52;61.72
62126;BME280;69591;53.282;6.150;2023-11-19T05:16:43;100459.91;;;15.52;61.56
62126;BME280;69591;53.282;6.150;2023-11-19T05:17:45;100462.25;;;15.54;61.75
62126;BME280;69591;53.282;6.150;2023-11-19T05:18:48;100471.19;;;15.54;61.65
62126;BME280;69591;53.282;6.150;2023-11-19T05:19:50;100468.47;;;15.54;61.59
62126;BME280;69591;53.282;6.150;2023-11-19T05:20:51;100463.41;;;15.53;61.60
62126;BME280;69591;53.282;6.150;2023-11-19T05:21:53;100456.03;;;15.53;61.54
62126;BME280;69591;53.282;6.150;2023-11-19T05:22:54;100461.47;;;15.53;61.55
62126;BME280;69591;53.282;6.150;2023-11-19T05:23:56;100466.91;;;15.53;61.53
62126;BME280;69591;53.282;6.150;2023-11-19T05:24:58;100462.25;;;15.54;61.51